createdAt,value
2023-04-14T00:01:49.119Z,99.90
2023-04-14T00:04:16.951Z,99.90
2023-04-14T00:06:44.784Z,99.90
2023-04-14T00:09:12.315Z,99.90
2023-04-14T00:11:39.325Z,99.90
2023-04-14T00:14:07.083Z,99.90
2023-04-14T00:16:34.270Z,99.90
2023-04-14T00:19:02.914Z,99.90
2023-04-14T00:21:31.599Z,99.90
2023-04-14T00:23:59.047Z,99.90
2023-04-14T00:26:26.521Z,99.90
2023-04-14T00:28:53.873Z,99.90
2023-04-14T00:31:22.405Z,99.90
2023-04-14T00:33:49.069Z,99.90
2023-04-14T00:36:16.536Z,99.90
2023-04-14T00:38:43.688Z,99.90
2023-04-14T00:41:10.891Z,99.90
2023-04-14T00:43:38.501Z,99.90
2023-04-14T00:46:07.151Z,99.90
2023-04-14T00:48:33.917Z,99.90
2023-04-14T00:51:02.180Z,99.90
2023-04-14T00:53:29.088Z,99.90
2023-04-14T00:55:56.643Z,99.90
2023-04-14T00:58:24.122Z,99.90
2023-04-14T01:00:55.395Z,99.90
2023-04-14T01:03:24.591Z,99.90
2023-04-14T01:05:52.551Z,99.90
2023-04-14T01:08:20.724Z,99.90
2023-04-14T01:10:55.662Z,99.90
2023-04-14T01:13:48.873Z,99.90
2023-04-14T01:16:33.932Z,99.90
2023-04-14T01:19:35.850Z,99.90
2023-04-14T01:22:05.417Z,99.90
2023-04-14T01:25:08.831Z,99.90
2023-04-14T01:27:57.646Z,99.90
2023-04-14T01:30:39.377Z,99.90
2023-04-14T01:33:07.053Z,99.90
2023-04-14T01:35:41.631Z,99.90
2023-04-14T01:38:15.068Z,99.90
2023-04-14T01:40:42.778Z,99.90
2023-04-14T01:43:11.510Z,99.90
2023-04-14T01:45:39.908Z,99.90
2023-04-14T01:48:07.348Z,99.90
2023-04-14T01:50:36.259Z,99.90
2023-04-14T01:53:05.358Z,99.90
2023-04-14T01:55:33.597Z,99.90
2023-04-14T01:58:00.975Z,99.90
2023-04-14T02:00:28.907Z,99.90
2023-04-14T02:02:56.701Z,99.90
2023-04-14T02:05:24.317Z,99.90
2023-04-14T02:07:52.563Z,99.90
2023-04-14T02:10:21.038Z,99.90
2023-04-14T02:12:48.366Z,99.90
2023-04-14T02:15:18.625Z,99.90
2023-04-14T02:17:46.969Z,99.90
2023-04-14T02:20:13.808Z,99.90
2023-04-14T02:22:41.788Z,99.90
2023-04-14T02:25:08.840Z,99.90
2023-04-14T02:27:43.691Z,99.90
2023-04-14T02:30:19.292Z,99.90
2023-04-14T02:32:48.326Z,99.90
2023-04-14T02:35:21.637Z,99.90
2023-04-14T02:37:50.908Z,99.90
2023-04-14T02:40:32.375Z,99.90
2023-04-14T02:43:37.606Z,99.90
2023-04-14T02:46:05.386Z,99.90
2023-04-14T02:48:33.720Z,99.90
2023-04-14T02:51:02.136Z,99.90
2023-04-14T02:53:30.983Z,99.90
2023-04-14T02:56:07.537Z,99.90
2023-04-14T02:58:37.719Z,99.90
2023-04-14T03:01:05.695Z,99.90
2023-04-14T03:03:37.547Z,99.90
2023-04-14T03:06:08.501Z,99.90
2023-04-14T03:08:35.954Z,99.90
2023-04-14T03:11:03.414Z,99.90
2023-04-14T03:13:31.300Z,99.90
2023-04-14T03:15:58.275Z,99.90
2023-04-14T03:18:26.139Z,99.90
2023-04-14T03:20:55.842Z,99.90
2023-04-14T03:23:24.671Z,99.90
2023-04-14T03:25:56.760Z,99.90
2023-04-14T03:28:30.248Z,99.90
2023-04-14T03:31:00.923Z,99.90
2023-04-14T03:33:33.948Z,99.90
2023-04-14T03:36:01.788Z,99.90
2023-04-14T03:38:32.547Z,99.90
2023-04-14T03:41:01.075Z,99.90
2023-04-14T03:43:28.905Z,99.90
2023-04-14T03:46:05.506Z,99.90
2023-04-14T03:48:36.919Z,99.90
2023-04-14T03:51:04.198Z,99.90
2023-04-14T03:53:36.236Z,99.90
2023-04-14T03:56:03.759Z,99.90
2023-04-14T03:58:30.851Z,99.90
2023-04-14T04:00:57.657Z,99.90
2023-04-14T04:03:24.644Z,99.90
2023-04-14T04:05:52.759Z,99.90
2023-04-14T04:08:20.960Z,99.90
2023-04-14T04:10:48.742Z,99.90
2023-04-14T04:13:19.670Z,99.90
2023-04-14T04:15:48.308Z,99.90
2023-04-14T04:18:16.735Z,99.90
2023-04-14T04:20:44.358Z,99.90
2023-04-14T04:23:12.233Z,99.90
2023-04-14T04:25:39.573Z,99.90
2023-04-14T04:28:15.360Z,99.90
2023-04-14T04:30:43.997Z,99.90
2023-04-14T04:33:11.963Z,99.90
2023-04-14T04:35:40.276Z,99.90
2023-04-14T04:38:11.431Z,99.90
2023-04-14T04:40:41.654Z,99.90
2023-04-14T04:43:50.039Z,99.90
2023-04-14T04:46:58.964Z,99.90
2023-04-14T04:53:33.794Z,99.90
2023-04-14T04:56:05.499Z,99.90
2023-04-14T04:58:33.113Z,99.90
2023-04-14T05:01:00.497Z,99.90
2023-04-14T05:03:27.665Z,99.90
2023-04-14T05:05:54.960Z,99.90
2023-04-14T05:08:22.185Z,99.90
2023-04-14T05:10:49.901Z,99.90
2023-04-14T05:13:17.198Z,99.90
2023-04-14T05:15:43.892Z,99.90
2023-04-14T05:18:11.165Z,99.90
2023-04-14T05:20:38.400Z,99.90
2023-04-14T05:23:05.738Z,99.90
2023-04-14T05:25:33.242Z,99.90
2023-04-14T05:28:00.170Z,99.90
2023-04-14T05:30:28.344Z,99.90
2023-04-14T05:32:56.069Z,99.90
2023-04-14T05:35:25.244Z,99.90
2023-04-14T05:37:52.015Z,99.90
2023-04-14T05:40:20.967Z,99.90
2023-04-14T05:42:48.311Z,99.90
2023-04-14T05:45:16.251Z,99.90
2023-04-14T05:47:43.021Z,99.90
2023-04-14T05:50:11.154Z,99.90
2023-04-14T05:52:38.544Z,99.90
2023-04-14T05:55:06.849Z,99.90
2023-04-14T05:57:34.926Z,99.90
2023-04-14T06:00:02.067Z,99.90
2023-04-14T06:02:40.657Z,99.90
2023-04-14T06:05:08.312Z,99.90
2023-04-14T06:07:35.930Z,99.90
2023-04-14T06:10:03.406Z,99.90
2023-04-14T06:12:30.678Z,99.90
2023-04-14T06:14:57.843Z,99.90
2023-04-14T06:17:25.187Z,99.90
2023-04-14T06:19:53.637Z,99.90
2023-04-14T06:22:21.319Z,99.90
2023-04-14T06:24:48.559Z,99.90
2023-04-14T06:27:16.230Z,99.90
2023-04-14T06:29:43.656Z,99.90
2023-04-14T06:32:10.756Z,99.90
2023-04-14T06:34:37.562Z,99.90
2023-04-14T06:37:05.178Z,99.90
2023-04-14T06:39:32.056Z,99.90
2023-04-14T06:41:59.060Z,99.90
2023-04-14T06:44:26.252Z,99.90
2023-04-14T06:46:53.442Z,99.90
2023-04-14T06:49:21.290Z,99.90
2023-04-14T06:51:48.688Z,99.90
2023-04-14T06:54:17.798Z,99.90
2023-04-14T06:56:45.365Z,99.90
2023-04-14T06:59:12.857Z,99.90
2023-04-14T07:01:40.466Z,99.90
2023-04-14T07:04:08.391Z,99.90
2023-04-14T07:06:36.008Z,99.90
2023-04-14T07:09:03.381Z,99.90
2023-04-14T07:11:30.862Z,99.90
2023-04-14T07:13:57.820Z,99.90
2023-04-14T07:16:24.764Z,99.90
2023-04-14T07:18:52.050Z,99.90
2023-04-14T07:21:19.825Z,99.90
2023-04-14T07:23:46.802Z,99.90
2023-04-14T07:26:13.732Z,99.90
2023-04-14T07:28:41.597Z,99.90
2023-04-14T07:31:11.726Z,99.90
2023-04-14T07:33:41.517Z,99.90
2023-04-14T07:36:09.931Z,99.90
2023-04-14T07:38:38.109Z,99.90
2023-04-14T07:41:07.007Z,99.90
2023-04-14T07:43:37.240Z,99.90
2023-04-14T07:46:05.659Z,99.90
2023-04-14T07:48:33.869Z,99.90
2023-04-14T07:51:00.990Z,99.90
2023-04-14T07:53:28.417Z,99.90
2023-04-14T07:55:55.642Z,99.90
2023-04-14T07:58:24.309Z,99.90
2023-04-14T08:00:53.496Z,99.90
2023-04-14T08:03:21.188Z,99.90
2023-04-14T08:05:48.942Z,99.90
2023-04-14T08:08:16.261Z,99.90
2023-04-14T08:10:44.042Z,99.90
2023-04-14T08:13:11.196Z,99.90
2023-04-14T08:15:38.281Z,99.90
2023-04-14T08:18:05.329Z,99.90
2023-04-14T08:20:32.459Z,99.90
2023-04-14T08:22:59.629Z,99.90
2023-04-14T08:25:27.501Z,99.90
2023-04-14T08:27:54.278Z,99.90
2023-04-14T08:30:21.023Z,99.90
2023-04-14T08:32:54.425Z,99.90
2023-04-14T08:35:35.648Z,99.90
2023-04-14T08:45:10.990Z,99.90
2023-04-14T08:47:37.849Z,99.90
2023-04-14T08:50:21.249Z,99.90
2023-04-14T08:52:48.461Z,99.90
2023-04-14T08:55:16.171Z,99.90
2023-04-14T08:57:44.301Z,99.90
2023-04-14T09:00:11.731Z,99.90
2023-04-14T09:02:40.235Z,99.90
2023-04-14T09:05:32.541Z,99.90
2023-04-14T09:08:09.892Z,99.90
2023-04-14T09:10:38.863Z,99.90
2023-04-14T09:13:07.159Z,99.90
2023-04-14T09:15:36.315Z,99.90
2023-04-14T09:18:03.335Z,99.90
2023-04-14T09:20:38.700Z,99.90
2023-04-14T09:23:08.245Z,99.90
2023-04-14T09:25:35.095Z,99.90
2023-04-14T09:28:02.576Z,99.90
2023-04-14T09:30:30.624Z,99.90
2023-04-14T09:33:07.913Z,99.90
2023-04-14T09:35:46.559Z,99.90
2023-04-14T09:38:35.022Z,99.90
2023-04-14T09:41:04.820Z,99.90
2023-04-14T09:43:32.010Z,99.90
2023-04-14T09:46:04.921Z,99.90
2023-04-14T09:48:32.520Z,99.90
2023-04-14T09:51:07.405Z,99.90
2023-04-14T09:56:26.883Z,99.90
2023-04-14T09:58:58.545Z,99.90
2023-04-14T10:01:33.830Z,99.90
2023-04-14T10:04:34.367Z,99.90
2023-04-14T10:07:01.778Z,99.90
2023-04-14T10:10:01.804Z,99.90
2023-04-14T10:12:31.679Z,99.90
2023-04-14T10:15:00.485Z,99.90
2023-04-14T10:17:31.935Z,99.90
2023-04-14T10:20:01.043Z,99.90
2023-04-14T10:22:29.250Z,99.90
2023-04-14T10:24:58.852Z,99.90
2023-04-14T10:27:31.173Z,99.90
2023-04-14T10:33:50.072Z,99.90
2023-04-14T10:36:28.057Z,99.90
2023-04-14T10:39:03.324Z,99.90
2023-04-14T10:41:47.950Z,99.90
2023-04-14T10:44:34.836Z,99.90
2023-04-14T10:47:08.726Z,99.90
2023-04-14T10:49:39.750Z,99.90
2023-04-14T10:52:16.972Z,99.90
2023-04-14T10:54:52.561Z,99.90
2023-04-14T10:57:25.068Z,99.70
2023-04-14T10:59:59.348Z,99.90
2023-04-14T11:02:30.918Z,99.90
2023-04-14T11:05:04.646Z,99.30
2023-04-14T11:07:40.485Z,99.00
2023-04-14T11:10:19.976Z,99.90
2023-04-14T11:12:47.836Z,99.90
2023-04-14T11:15:18.712Z,99.90
2023-04-14T11:17:45.548Z,99.90
2023-04-14T11:20:15.993Z,99.90
2023-04-14T11:22:46.265Z,99.90
2023-04-14T11:25:17.808Z,99.90
2023-04-14T11:27:44.901Z,99.50
2023-04-14T11:30:16.379Z,99.90
2023-04-14T11:32:53.733Z,99.90
2023-04-14T11:35:47.992Z,99.80
2023-04-14T11:38:14.894Z,99.90
2023-04-14T11:41:14.998Z,99.90
2023-04-14T11:43:46.790Z,99.90
2023-04-14T11:50:09.003Z,98.90
2023-04-14T11:57:23.239Z,96.10
2023-04-14T11:59:50.897Z,95.30
2023-04-14T12:02:22.113Z,95.20
2023-04-14T12:04:51.137Z,94.50
2023-04-14T12:07:19.516Z,92.70
2023-04-14T12:09:50.513Z,92.60
2023-04-14T12:12:18.600Z,92.50
2023-04-14T12:14:48.689Z,92.10
2023-04-14T12:17:20.438Z,92.90
2023-04-14T12:19:48.831Z,91.80
2023-04-14T12:22:27.172Z,91.00
2023-04-14T12:24:54.250Z,91.50
2023-04-14T12:27:23.058Z,92.50
2023-04-14T12:29:50.229Z,93.00
2023-04-14T12:32:17.547Z,93.00
2023-04-14T12:34:55.001Z,92.30
2023-04-14T12:37:27.632Z,91.50
2023-04-14T12:39:58.387Z,92.10
2023-04-14T12:42:29.518Z,92.70
2023-04-14T12:45:19.527Z,92.50
2023-04-14T12:47:53.634Z,93.40
2023-04-14T12:50:26.470Z,94.50
2023-04-14T12:52:53.844Z,94.50
2023-04-14T12:55:32.634Z,92.30
2023-04-14T12:57:59.625Z,94.30
2023-04-14T13:00:27.867Z,93.40
2023-04-14T13:02:55.939Z,93.00
2023-04-14T13:05:23.544Z,93.70
2023-04-14T13:07:50.742Z,93.50
2023-04-14T13:10:18.208Z,92.00
2023-04-14T13:12:46.486Z,92.30
2023-04-14T13:16:10.323Z,93.90
2023-04-14T13:18:01.232Z,94.70
2023-04-14T13:20:30.454Z,93.90
2023-04-14T13:22:58.351Z,95.10
2023-04-14T13:25:25.483Z,94.50
2023-04-14T13:27:53.042Z,96.00
2023-04-14T13:30:19.954Z,95.10
2023-04-14T13:32:46.941Z,94.80
2023-04-14T13:35:13.891Z,94.80
2023-04-14T13:37:41.408Z,94.00
2023-04-14T13:40:09.006Z,93.70
2023-04-14T13:42:35.705Z,94.30
2023-04-14T13:45:03.165Z,95.40
2023-04-14T13:47:30.093Z,93.70
2023-04-14T13:49:57.553Z,93.60
2023-04-14T13:52:24.494Z,92.50
2023-04-14T13:54:51.629Z,94.00
2023-04-14T13:57:18.917Z,92.40
2023-04-14T13:59:46.055Z,91.70
2023-04-14T14:02:14.507Z,91.60
2023-04-14T14:04:41.609Z,94.10
2023-04-14T14:07:08.477Z,91.50
2023-04-14T14:09:35.581Z,92.00
2023-04-14T14:12:02.563Z,91.90
2023-04-14T14:14:29.951Z,92.40
2023-04-14T14:16:56.868Z,92.30
2023-04-14T14:19:24.688Z,92.20
2023-04-14T14:21:51.726Z,92.90
2023-04-14T14:24:18.481Z,90.70
2023-04-14T14:26:45.603Z,90.30
2023-04-14T14:29:12.819Z,89.10
2023-04-14T14:31:39.657Z,88.10
2023-04-14T14:34:07.053Z,89.40
2023-04-14T14:36:33.861Z,89.40
2023-04-14T14:39:00.619Z,88.10
2023-04-14T14:41:27.938Z,89.60
2023-04-14T14:43:54.941Z,90.30
2023-04-14T14:46:23.431Z,89.70
2023-04-14T14:48:50.868Z,90.00
2023-04-14T14:51:17.772Z,90.40
2023-04-14T14:53:44.434Z,90.20
2023-04-14T14:56:11.757Z,90.90
2023-04-14T14:58:39.177Z,90.60
2023-04-14T15:01:07.133Z,89.10
2023-04-14T15:03:35.063Z,87.50
2023-04-14T15:06:02.655Z,88.50
2023-04-14T15:08:29.853Z,90.00
2023-04-14T15:10:56.877Z,90.60
2023-04-14T15:13:23.773Z,89.90
2023-04-14T15:15:50.963Z,90.70
2023-04-14T15:18:17.781Z,90.40
2023-04-14T15:20:44.911Z,90.60
2023-04-14T15:23:11.681Z,90.30
2023-04-14T15:25:38.416Z,90.90
2023-04-14T15:28:05.895Z,91.30
2023-04-14T15:30:32.885Z,91.60
2023-04-14T15:33:00.958Z,91.60
2023-04-14T15:35:28.145Z,90.70
2023-04-14T15:37:55.074Z,91.20
2023-04-14T15:40:22.063Z,90.60
2023-04-14T15:42:49.365Z,90.60
2023-04-14T15:45:17.440Z,91.30
2023-04-14T15:47:46.390Z,91.10
2023-04-14T15:50:18.706Z,91.10
2023-04-14T15:52:46.361Z,91.40
2023-04-14T15:55:13.445Z,91.30
2023-04-14T15:57:40.688Z,91.40
2023-04-14T16:00:09.373Z,91.60
2023-04-14T16:02:45.778Z,90.60
2023-04-14T16:05:13.309Z,91.60
2023-04-14T16:07:40.409Z,91.00
2023-04-14T16:10:08.673Z,91.00
2023-04-14T16:12:35.863Z,91.50
2023-04-14T16:15:03.791Z,90.70
2023-04-14T16:17:31.666Z,91.10
2023-04-14T16:19:58.477Z,91.10
2023-04-14T16:22:26.581Z,91.90
2023-04-14T16:24:55.710Z,92.10
2023-04-14T16:27:23.017Z,91.50
2023-04-14T16:29:49.904Z,91.60
2023-04-14T16:32:17.646Z,91.70
2023-04-14T16:34:44.407Z,91.00
2023-04-14T16:37:11.701Z,91.10
2023-04-14T16:39:40.326Z,90.70
2023-04-14T16:42:08.705Z,91.20
2023-04-14T16:44:37.546Z,91.70
2023-04-14T16:47:04.285Z,91.80
2023-04-14T16:49:31.725Z,92.10
2023-04-14T16:52:00.532Z,92.00
2023-04-14T16:54:27.918Z,92.30
2023-04-14T16:56:54.634Z,92.00
2023-04-14T16:59:21.616Z,92.50
2023-04-14T17:01:48.864Z,91.70
2023-04-14T17:04:16.296Z,92.10
2023-04-14T17:06:43.489Z,91.80
2023-04-14T17:09:10.272Z,91.90
2023-04-14T17:11:37.556Z,91.80
2023-04-14T17:14:04.616Z,92.00
2023-04-14T17:16:33.247Z,92.00
2023-04-14T17:19:00.223Z,92.00
2023-04-14T17:21:28.365Z,92.70
2023-04-14T17:23:55.725Z,92.40
2023-04-14T17:26:23.470Z,92.70
2023-04-14T17:28:50.411Z,93.30
2023-04-14T17:31:17.646Z,93.80
2023-04-14T17:33:45.062Z,93.50
2023-04-14T17:36:14.087Z,93.80
2023-04-14T17:38:45.945Z,93.50
2023-04-14T17:41:13.923Z,93.70
2023-04-14T17:43:41.613Z,93.60
2023-04-14T17:46:09.168Z,92.80
2023-04-14T17:48:36.562Z,93.80
2023-04-14T17:51:03.642Z,94.50
2023-04-14T17:53:30.920Z,94.50
2023-04-14T17:55:58.216Z,94.60
2023-04-14T17:58:26.451Z,95.40
2023-04-14T18:00:53.884Z,95.50
2023-04-14T18:03:21.487Z,96.00
2023-04-14T18:05:48.441Z,96.00
2023-04-14T18:08:16.060Z,95.90
2023-04-14T18:10:45.846Z,95.30
2023-04-14T18:13:12.888Z,95.60
2023-04-14T18:15:41.318Z,95.80
2023-04-14T18:18:09.087Z,96.00
2023-04-14T18:20:36.286Z,96.00
2023-04-14T18:23:03.024Z,95.70
2023-04-14T18:28:03.220Z,95.70
2023-04-14T18:30:32.349Z,95.90
2023-04-14T18:33:00.978Z,96.20
2023-04-14T18:35:29.115Z,96.60
2023-04-14T18:37:56.184Z,96.50
2023-04-14T18:40:23.078Z,96.20
2023-04-14T18:42:51.975Z,96.10
2023-04-14T18:45:19.539Z,96.50
2023-04-14T23:19:04.020Z,99.90
2023-04-14T23:22:46.902Z,99.90
2023-04-14T23:57:32.404Z,99.90
